createdAt,value
2022-10-24T00:01:16.423Z,12.44
2022-10-24T00:03:43.648Z,12.44
2022-10-24T00:06:11.778Z,12.40
2022-10-24T00:08:40.208Z,12.42
2022-10-24T00:11:20.341Z,12.45
2022-10-24T00:13:52.142Z,12.44
2022-10-24T00:16:19.054Z,12.47
2022-10-24T00:18:46.433Z,12.42
2022-10-24T00:21:13.574Z,12.42
2022-10-24T00:23:41.036Z,12.40
2022-10-24T00:26:08.228Z,12.38
2022-10-24T00:28:36.767Z,12.36
2022-10-24T00:31:06.140Z,12.35
2022-10-24T00:33:33.492Z,12.31
2022-10-24T00:36:00.485Z,12.35
2022-10-24T00:38:27.662Z,12.32
2022-10-24T00:40:54.747Z,12.35
2022-10-24T00:43:24.801Z,12.31
2022-10-24T00:45:59.510Z,12.33
2022-10-24T00:48:51.951Z,12.35
2022-10-24T00:51:18.873Z,12.28
2022-10-24T00:53:49.739Z,12.26
2022-10-24T00:56:19.340Z,12.21
2022-10-24T00:58:48.330Z,12.14
2022-10-24T01:01:15.994Z,12.14
2022-10-24T01:03:43.120Z,12.08
2022-10-24T01:06:13.002Z,12.08
2022-10-24T01:08:52.484Z,12.08
2022-10-24T01:11:52.216Z,12.09
2022-10-24T01:14:26.477Z,12.13
2022-10-24T01:17:18.571Z,12.14
2022-10-24T01:19:48.258Z,12.17
2022-10-24T01:22:24.202Z,12.19
2022-10-24T01:25:05.688Z,12.16
2022-10-24T01:27:44.555Z,12.14
2022-10-24T01:30:13.942Z,12.10
2022-10-24T01:32:40.861Z,12.09
2022-10-24T01:38:04.949Z,12.10
2022-10-24T01:40:34.885Z,12.11
2022-10-24T01:43:10.265Z,12.12
2022-10-24T01:45:40.815Z,12.11
2022-10-24T01:48:12.518Z,12.12
2022-10-24T01:50:40.778Z,12.14
2022-10-24T01:53:09.863Z,12.08
2022-10-24T01:55:39.594Z,12.09
2022-10-24T01:58:08.010Z,12.10
2022-10-24T02:00:35.565Z,12.06
2022-10-24T02:03:11.793Z,12.08
2022-10-24T02:05:44.844Z,12.04
2022-10-24T02:08:17.268Z,12.04
2022-10-24T02:10:51.018Z,12.06
2022-10-24T02:13:30.662Z,12.06
2022-10-24T02:16:00.964Z,12.00
2022-10-24T02:18:29.570Z,11.92
2022-10-24T02:21:11.850Z,11.87
2022-10-24T02:23:48.651Z,11.81
2022-10-24T02:26:31.206Z,11.75
2022-10-24T02:29:02.690Z,11.72
2022-10-24T02:31:36.176Z,11.71
2022-10-24T02:34:06.820Z,11.70
2022-10-24T02:36:35.836Z,11.67
2022-10-24T02:39:06.958Z,11.63
2022-10-24T02:41:36.264Z,11.61
2022-10-24T02:44:05.256Z,11.61
2022-10-24T02:46:34.224Z,11.53
2022-10-24T02:49:02.745Z,11.54
2022-10-24T02:51:33.194Z,11.57
2022-10-24T02:54:01.449Z,11.54
2022-10-24T02:56:29.536Z,11.54
2022-10-24T02:58:57.073Z,11.51
2022-10-24T03:01:24.556Z,11.42
2022-10-24T03:03:51.666Z,11.47
2022-10-24T03:06:18.723Z,11.45
2022-10-24T03:08:45.793Z,11.44
2022-10-24T03:11:12.800Z,11.42
2022-10-24T03:13:39.825Z,11.38
2022-10-24T03:16:10.269Z,11.34
2022-10-24T03:18:40.171Z,11.31
2022-10-24T03:21:07.158Z,11.29
2022-10-24T03:23:34.129Z,11.32
2022-10-24T03:26:01.132Z,11.33
2022-10-24T03:28:28.152Z,11.28
2022-10-24T03:30:55.433Z,11.30
2022-10-24T03:33:22.853Z,11.29
2022-10-24T03:35:53.913Z,11.27
2022-10-24T03:38:22.826Z,11.28
2022-10-24T03:40:50.587Z,11.25
2022-10-24T03:43:18.190Z,11.26
2022-10-24T03:45:45.328Z,11.25
2022-10-24T03:48:12.571Z,11.29
2022-10-24T03:50:39.796Z,11.31
2022-10-24T03:53:06.783Z,11.31
2022-10-24T03:55:34.353Z,11.31
2022-10-24T03:58:01.606Z,11.22
2022-10-24T04:00:28.616Z,11.31
2022-10-24T04:02:56.201Z,11.34
2022-10-24T04:05:23.227Z,11.32
2022-10-24T04:07:50.334Z,11.30
2022-10-24T04:10:17.425Z,11.36
2022-10-24T04:12:44.405Z,11.36
2022-10-24T04:15:11.486Z,11.38
2022-10-24T04:17:38.787Z,11.37
2022-10-24T04:20:06.387Z,11.37
2022-10-24T04:22:33.730Z,11.37
2022-10-24T04:25:00.736Z,11.37
2022-10-24T04:27:27.730Z,11.45
2022-10-24T04:29:54.741Z,11.41
2022-10-24T04:32:21.765Z,11.37
2022-10-24T04:34:48.797Z,11.40
2022-10-24T04:37:15.776Z,11.42
2022-10-24T04:39:42.744Z,11.47
2022-10-24T04:42:09.740Z,11.41
2022-10-24T04:44:36.751Z,11.45
2022-10-24T04:47:03.749Z,11.44
2022-10-24T04:49:30.708Z,11.46
2022-10-24T04:51:57.684Z,11.46
2022-10-24T04:54:24.647Z,11.31
2022-10-24T04:56:51.631Z,11.35
2022-10-24T04:59:18.572Z,11.39
2022-10-24T05:01:45.664Z,11.38
2022-10-24T05:04:12.825Z,11.36
2022-10-24T05:06:42.735Z,11.39
2022-10-24T05:09:12.699Z,11.39
2022-10-24T05:11:39.996Z,11.38
2022-10-24T05:14:07.394Z,11.38
2022-10-24T05:16:34.416Z,11.36
2022-10-24T05:19:01.548Z,11.36
2022-10-24T05:21:28.565Z,11.37
2022-10-24T05:23:55.563Z,11.28
2022-10-24T05:26:22.560Z,11.25
2022-10-24T05:28:52.422Z,11.18
2022-10-24T05:31:20.053Z,11.16
2022-10-24T05:33:47.258Z,11.15
2022-10-24T05:36:14.245Z,11.14
2022-10-24T05:38:41.402Z,11.09
2022-10-24T05:41:08.478Z,10.96
2022-10-24T05:43:35.458Z,10.88
2022-10-24T05:46:02.825Z,10.82
2022-10-24T05:48:29.819Z,10.72
2022-10-24T05:50:57.964Z,10.69
2022-10-24T05:53:26.457Z,10.72
2022-10-24T05:55:53.589Z,10.72
2022-10-24T05:58:20.849Z,10.76
2022-10-24T06:00:53.311Z,10.71
2022-10-24T06:03:22.004Z,10.68
2022-10-24T06:05:50.104Z,10.63
2022-10-24T06:08:17.394Z,10.63
2022-10-24T06:10:49.237Z,10.67
2022-10-24T06:13:16.533Z,10.71
2022-10-24T06:15:44.906Z,10.73
2022-10-24T06:18:12.248Z,10.75
2022-10-24T06:20:39.389Z,10.80
2022-10-24T06:23:06.405Z,10.82
2022-10-24T06:25:33.401Z,10.83
2022-10-24T06:28:00.532Z,10.81
2022-10-24T06:30:27.769Z,10.80
2022-10-24T06:32:54.837Z,10.81
2022-10-24T06:35:21.805Z,10.84
2022-10-24T06:37:48.847Z,10.78
2022-10-24T06:40:17.461Z,10.80
2022-10-24T06:42:45.235Z,10.82
2022-10-24T06:45:12.747Z,10.83
2022-10-24T06:47:39.854Z,10.85
2022-10-24T06:50:07.203Z,10.84
2022-10-24T06:52:34.180Z,10.88
2022-10-24T06:55:01.144Z,10.91
2022-10-24T06:57:28.361Z,10.94
2022-10-24T06:59:55.368Z,10.89
2022-10-24T07:02:22.455Z,10.84
2022-10-24T07:04:49.518Z,10.90
2022-10-24T07:07:18.753Z,10.87
2022-10-24T07:09:52.476Z,10.95
2022-10-24T07:14:52.207Z,11.02
2022-10-24T07:17:20.066Z,11.13
2022-10-24T07:19:52.723Z,11.17
2022-10-24T07:22:19.902Z,11.27
2022-10-24T07:24:55.312Z,11.36
2022-10-24T07:27:23.149Z,11.47
2022-10-24T07:29:50.522Z,11.50
2022-10-24T07:32:18.724Z,11.50
2022-10-24T07:34:45.786Z,11.55
2022-10-24T07:37:12.776Z,11.62
2022-10-24T07:39:39.976Z,11.67
2022-10-24T07:42:07.052Z,11.74
2022-10-24T07:44:34.065Z,11.78
2022-10-24T07:47:01.049Z,11.88
2022-10-24T07:49:30.210Z,11.95
2022-10-24T07:51:59.767Z,12.05
2022-10-24T07:54:26.692Z,12.19
2022-10-24T07:56:54.206Z,12.34
2022-10-24T07:59:40.583Z,12.45
2022-10-24T08:02:10.743Z,12.57
2022-10-24T08:04:37.710Z,12.63
2022-10-24T08:07:04.831Z,12.62
2022-10-24T08:09:31.845Z,12.68
2022-10-24T08:11:58.843Z,12.72
2022-10-24T08:14:25.825Z,12.73
2022-10-24T08:16:52.841Z,12.85
2022-10-24T08:19:19.881Z,12.95
2022-10-24T08:21:46.905Z,12.90
2022-10-24T08:24:13.878Z,13.07
2022-10-24T08:26:40.857Z,13.22
2022-10-24T08:29:07.924Z,13.22
2022-10-24T08:31:34.919Z,13.26
2022-10-24T08:34:03.883Z,13.33
2022-10-24T08:36:32.666Z,13.25
2022-10-24T08:39:00.842Z,13.37
2022-10-24T08:41:33.265Z,13.34
2022-10-24T08:44:04.314Z,13.38
2022-10-24T08:46:45.405Z,13.45
2022-10-24T08:49:51.514Z,13.50
2022-10-24T08:52:35.312Z,13.64
2022-10-24T08:58:14.989Z,13.90
2022-10-24T09:00:45.023Z,14.03
2022-10-24T09:03:26.530Z,14.17
2022-10-24T09:06:06.568Z,14.32
2022-10-24T09:08:39.280Z,14.49
2022-10-24T09:11:07.425Z,14.60
2022-10-24T09:13:37.812Z,14.76
2022-10-24T09:16:05.345Z,14.90
2022-10-24T09:18:41.401Z,15.01
2022-10-24T09:21:11.471Z,15.08
2022-10-24T09:23:38.835Z,15.06
2022-10-24T09:26:13.532Z,15.06
2022-10-24T09:28:41.502Z,15.15
2022-10-24T09:31:20.438Z,15.38
2022-10-24T09:33:49.991Z,15.48
2022-10-24T09:36:19.504Z,15.82
2022-10-24T09:38:47.887Z,16.10
2022-10-24T09:41:22.920Z,16.46
2022-10-24T09:43:54.028Z,16.83
2022-10-24T09:46:20.948Z,17.18
2022-10-24T09:48:58.875Z,17.52
2022-10-24T09:51:33.364Z,17.73
2022-10-24T09:54:20.356Z,17.84
2022-10-24T09:56:55.235Z,17.95
2022-10-24T09:59:40.982Z,18.11
2022-10-24T10:02:10.753Z,18.16
2022-10-24T10:04:38.691Z,18.16
2022-10-24T10:07:16.535Z,18.35
2022-10-24T10:09:56.429Z,18.48
2022-10-24T10:12:41.624Z,18.48
2022-10-24T10:15:53.466Z,18.48
2022-10-24T10:18:22.498Z,18.67
2022-10-24T10:21:08.213Z,18.76
2022-10-24T10:23:36.868Z,18.78
2022-10-24T10:26:20.752Z,18.85
2022-10-24T10:28:53.681Z,18.97
2022-10-24T10:31:41.437Z,19.08
2022-10-24T10:34:23.749Z,19.28
2022-10-24T10:37:06.018Z,19.32
2022-10-24T10:39:50.970Z,19.39
2022-10-24T10:42:34.644Z,19.46
2022-10-24T10:45:25.600Z,19.41
2022-10-24T10:48:21.340Z,19.33
2022-10-24T10:50:52.250Z,19.42
2022-10-24T10:53:50.277Z,19.51
2022-10-24T10:56:26.427Z,19.51
2022-10-24T10:59:15.325Z,19.46
2022-10-24T11:01:52.702Z,19.36
2022-10-24T11:04:28.869Z,19.45
2022-10-24T11:07:21.551Z,19.34
2022-10-24T11:09:51.652Z,19.38
2022-10-24T11:12:42.495Z,19.52
2022-10-24T11:15:24.650Z,19.57
2022-10-24T11:18:06.885Z,19.71
2022-10-24T11:20:51.852Z,20.03
2022-10-24T11:23:32.239Z,20.26
2022-10-24T11:26:07.435Z,20.40
2022-10-24T11:29:11.591Z,20.28
2022-10-24T11:34:50.803Z,20.65
2022-10-24T11:37:24.324Z,20.50
2022-10-24T11:39:57.607Z,20.63
2022-10-24T11:42:37.662Z,20.74
2022-10-24T11:45:12.192Z,20.62
2022-10-24T11:47:59.691Z,20.56
2022-10-24T11:50:54.072Z,20.59
2022-10-24T11:53:30.374Z,20.35
2022-10-24T11:56:27.145Z,20.24
2022-10-24T11:58:54.349Z,20.05
2022-10-24T12:01:52.443Z,19.97
2022-10-24T12:04:31.301Z,20.01
2022-10-24T12:07:33.962Z,20.04
2022-10-24T12:10:03.794Z,20.01
2022-10-24T12:12:42.972Z,20.10
2022-10-24T12:15:34.634Z,20.21
2022-10-24T12:18:11.825Z,20.21
2022-10-24T12:20:40.315Z,20.33
2022-10-24T12:23:07.922Z,20.28
2022-10-24T12:25:37.430Z,20.32
2022-10-24T12:28:07.973Z,20.42
2022-10-24T12:30:36.501Z,20.41
2022-10-24T12:33:25.713Z,20.40
2022-10-24T12:35:53.749Z,20.38
2022-10-24T12:38:26.801Z,20.27
2022-10-24T12:41:04.041Z,20.30
2022-10-24T12:43:36.290Z,20.19
2022-10-24T12:46:21.800Z,20.14
2022-10-24T12:48:59.128Z,20.13
2022-10-24T12:51:34.602Z,20.06
2022-10-24T12:54:03.249Z,20.11
2022-10-24T12:56:32.777Z,20.02
2022-10-24T12:59:21.241Z,19.91
2022-10-24T13:01:50.106Z,19.95
2022-10-24T13:04:35.916Z,19.91
2022-10-24T13:07:17.979Z,19.92
2022-10-24T13:09:53.654Z,19.89
2022-10-24T13:12:23.605Z,19.87
2022-10-24T13:15:09.522Z,19.89
2022-10-24T13:17:54.141Z,19.77
2022-10-24T13:20:44.633Z,19.65
2022-10-24T13:23:18.207Z,19.48
2022-10-24T13:25:45.567Z,19.55
2022-10-24T13:28:21.644Z,19.44
2022-10-24T13:30:58.173Z,19.38
2022-10-24T13:33:31.986Z,19.35
2022-10-24T13:36:10.860Z,19.33
2022-10-24T13:38:41.527Z,19.26
2022-10-24T13:41:12.533Z,19.09
2022-10-24T13:43:46.707Z,19.10
2022-10-24T13:46:25.227Z,19.10
2022-10-24T13:48:53.047Z,19.05
2022-10-24T13:51:36.943Z,19.14
2022-10-24T13:54:13.788Z,19.13
2022-10-24T13:56:42.476Z,19.02
2022-10-24T13:59:27.900Z,18.95
2022-10-24T14:01:57.839Z,18.99
2022-10-24T14:04:27.151Z,18.98
2022-10-24T14:07:01.169Z,19.01
2022-10-24T14:09:28.463Z,18.90
2022-10-24T14:11:55.877Z,18.95
2022-10-24T14:14:28.092Z,18.88
2022-10-24T14:17:24.129Z,18.80
2022-10-24T14:19:55.521Z,18.70
2022-10-24T14:22:24.975Z,18.59
2022-10-24T14:24:51.894Z,18.48
2022-10-24T14:27:20.127Z,18.30
2022-10-24T14:29:59.543Z,18.37
2022-10-24T14:32:28.526Z,18.26
2022-10-24T14:34:58.514Z,18.22
2022-10-24T14:37:33.336Z,18.09
2022-10-24T14:40:01.238Z,18.09
2022-10-24T14:42:28.775Z,18.03
2022-10-24T14:44:58.284Z,17.90
2022-10-24T14:47:27.168Z,17.79
2022-10-24T14:50:00.238Z,17.74
2022-10-24T14:52:27.297Z,17.68
2022-10-24T14:55:03.766Z,17.66
2022-10-24T14:57:32.876Z,17.50
2022-10-24T15:00:03.066Z,17.44
2022-10-24T15:02:32.637Z,17.41
2022-10-24T15:05:19.078Z,17.37
2022-10-24T15:08:28.142Z,17.35
2022-10-24T15:11:16.525Z,17.27
2022-10-24T15:13:48.202Z,17.32
2022-10-24T15:16:35.256Z,17.27
2022-10-24T15:19:02.735Z,17.24
2022-10-24T15:21:43.685Z,17.19
2022-10-24T15:24:21.794Z,17.18
2022-10-24T15:26:49.319Z,17.13
2022-10-24T15:29:21.938Z,16.97
2022-10-24T15:31:50.744Z,16.87
2022-10-24T15:34:20.605Z,16.87
2022-10-24T15:36:49.594Z,16.66
2022-10-24T15:39:19.934Z,16.62
2022-10-24T15:41:47.711Z,16.32
2022-10-24T15:44:21.724Z,16.30
2022-10-24T15:46:49.425Z,16.15
2022-10-24T15:49:16.650Z,16.09
2022-10-24T15:51:49.113Z,16.05
2022-10-24T15:54:20.160Z,15.99
2022-10-24T15:56:47.351Z,15.86
2022-10-24T15:59:14.459Z,15.79
2022-10-24T16:01:45.417Z,15.69
2022-10-24T16:04:13.087Z,15.58
2022-10-24T16:06:40.069Z,15.54
2022-10-24T16:09:14.736Z,15.55
2022-10-24T16:11:41.747Z,15.43
2022-10-24T16:14:16.511Z,15.37
2022-10-24T16:16:43.883Z,15.30
2022-10-24T16:19:11.378Z,15.26
2022-10-24T16:21:40.094Z,15.16
2022-10-24T16:24:08.495Z,15.11
2022-10-24T16:26:36.504Z,14.99
2022-10-24T16:29:04.352Z,15.02
2022-10-24T16:31:32.366Z,14.87
2022-10-24T16:33:59.454Z,14.80
2022-10-24T16:36:26.771Z,14.72
2022-10-24T16:38:53.790Z,14.64
2022-10-24T16:41:23.408Z,14.60
2022-10-24T16:43:53.971Z,14.49
2022-10-24T16:46:21.954Z,14.44
2022-10-24T16:48:49.297Z,14.34
2022-10-24T16:51:23.574Z,14.24
2022-10-24T16:53:50.652Z,14.15
2022-10-24T16:56:17.674Z,14.18
2022-10-24T16:58:44.773Z,14.10
2022-10-24T17:01:14.650Z,14.10
2022-10-24T17:03:43.617Z,14.07
2022-10-24T17:06:10.813Z,14.05
2022-10-24T17:08:37.864Z,14.01
2022-10-24T17:11:09.551Z,13.97
2022-10-24T17:13:43.373Z,13.95
2022-10-24T17:16:11.136Z,13.85
2022-10-24T17:18:38.513Z,13.76
2022-10-24T17:21:05.856Z,13.64
2022-10-24T17:23:33.670Z,13.58
2022-10-24T17:26:01.239Z,13.48
2022-10-24T17:28:33.045Z,13.45
2022-10-24T17:31:00.540Z,13.38
2022-10-24T17:33:27.617Z,13.32
2022-10-24T17:35:57.482Z,13.31
2022-10-24T17:38:30.618Z,13.29
2022-10-24T17:41:07.165Z,13.26
2022-10-24T17:43:34.364Z,13.24
2022-10-24T17:46:01.640Z,13.23
2022-10-24T17:48:28.786Z,13.20
2022-10-24T17:50:58.383Z,13.17
2022-10-24T17:53:25.376Z,13.09
2022-10-24T17:55:52.398Z,13.08
2022-10-24T17:58:19.413Z,13.02
2022-10-24T18:00:46.636Z,13.01
2022-10-24T18:03:14.467Z,12.97
2022-10-24T18:05:41.496Z,12.91
2022-10-24T18:08:10.957Z,12.90
2022-10-24T18:10:39.158Z,12.89
2022-10-24T18:13:07.289Z,12.88
2022-10-24T18:15:35.477Z,12.79
2022-10-24T18:18:02.537Z,12.76
2022-10-24T18:20:29.594Z,12.72
2022-10-24T18:22:58.071Z,12.62
2022-10-24T18:25:25.053Z,12.66
2022-10-24T18:27:52.141Z,12.58
2022-10-24T18:30:19.556Z,12.55
2022-10-24T18:32:47.265Z,12.47
2022-10-24T18:35:15.014Z,12.42
2022-10-24T18:37:42.094Z,12.31
2022-10-24T18:40:09.767Z,12.28
2022-10-24T18:42:39.689Z,12.24
2022-10-24T18:45:11.071Z,12.16
2022-10-24T18:47:38.443Z,12.06
2022-10-24T18:50:05.978Z,12.03
2022-10-24T18:52:39.930Z,11.96
2022-10-24T18:55:26.488Z,11.93
2022-10-24T18:57:54.152Z,11.96
2022-10-24T19:00:23.927Z,12.00
2022-10-24T19:03:31.237Z,12.03
2022-10-24T19:06:09.053Z,12.02
2022-10-24T19:08:36.181Z,12.01
2022-10-24T19:11:03.405Z,12.01
2022-10-24T19:13:30.504Z,12.02
2022-10-24T19:16:02.222Z,12.02
2022-10-24T19:18:32.568Z,11.99
2022-10-24T19:21:00.435Z,11.98
2022-10-24T19:23:27.614Z,11.96
2022-10-24T19:25:54.599Z,11.98
2022-10-24T19:28:22.269Z,12.03
2022-10-24T19:30:49.502Z,12.07
2022-10-24T19:33:16.742Z,12.13
2022-10-24T19:35:44.680Z,12.19
2022-10-24T19:38:11.627Z,12.23
2022-10-24T19:40:44.959Z,12.30
2022-10-24T19:43:12.127Z,12.33
2022-10-24T19:45:45.633Z,12.35
2022-10-24T19:48:17.908Z,12.34
2022-10-24T19:50:44.903Z,12.30
2022-10-24T19:55:44.057Z,12.30
2022-10-24T19:58:12.827Z,12.30
2022-10-24T20:00:40.526Z,12.31
2022-10-24T20:03:08.018Z,12.33
2022-10-24T20:05:35.308Z,12.33
2022-10-24T20:08:02.579Z,12.34
2022-10-24T20:10:29.628Z,12.32
2022-10-24T20:12:56.678Z,12.28
2022-10-24T20:15:23.649Z,12.25
2022-10-24T20:17:50.613Z,12.26
2022-10-24T20:20:17.685Z,12.22
2022-10-24T20:22:45.035Z,12.21
2022-10-24T20:25:12.306Z,12.22
2022-10-24T20:27:39.265Z,12.22
2022-10-24T20:30:06.825Z,12.21
2022-10-24T20:32:33.833Z,12.23
2022-10-24T20:35:00.789Z,12.26
2022-10-24T20:37:27.743Z,12.29
2022-10-24T20:39:54.777Z,12.32
2022-10-24T20:42:21.774Z,12.34
2022-10-24T20:44:48.780Z,12.39
2022-10-24T20:47:15.876Z,12.45
2022-10-24T20:49:42.830Z,12.46
2022-10-24T20:54:36.892Z,12.55
2022-10-24T20:57:04.046Z,12.56
2022-10-24T20:59:30.993Z,12.57
2022-10-24T21:01:58.166Z,12.59
2022-10-24T21:04:25.246Z,12.60
2022-10-24T21:06:52.241Z,12.59
2022-10-24T21:09:19.253Z,12.63
2022-10-24T21:11:46.330Z,12.62
2022-10-24T21:14:13.488Z,12.60
2022-10-24T21:16:40.447Z,12.59
2022-10-24T21:19:07.430Z,12.56
2022-10-24T21:21:34.462Z,12.51
2022-10-24T21:24:04.484Z,12.48
2022-10-24T21:26:35.150Z,12.47
2022-10-24T21:29:20.697Z,12.46
2022-10-24T21:31:50.500Z,12.51
2022-10-24T21:34:18.463Z,12.53
2022-10-24T21:36:45.632Z,12.56
2022-10-24T21:39:14.601Z,12.61
2022-10-24T21:41:42.320Z,12.63
2022-10-24T21:44:09.841Z,12.68
2022-10-24T21:46:37.026Z,12.67
2022-10-24T21:49:04.029Z,12.68
2022-10-24T21:51:33.516Z,12.71
2022-10-24T21:54:03.345Z,12.68
2022-10-24T21:56:32.566Z,12.65
2022-10-24T22:01:38.057Z,12.61
2022-10-24T22:04:06.221Z,12.60
2022-10-24T22:06:35.156Z,12.57
2022-10-24T22:09:04.017Z,12.54
2022-10-24T22:11:32.430Z,12.48
2022-10-24T22:14:00.247Z,12.39
2022-10-24T22:16:29.767Z,12.38
2022-10-24T22:19:00.449Z,12.28
2022-10-24T22:21:29.288Z,12.28
2022-10-24T22:24:00.943Z,12.22
2022-10-24T22:26:28.685Z,12.18
2022-10-24T22:28:55.886Z,12.16
2022-10-24T22:31:24.257Z,12.15
2022-10-24T22:33:51.876Z,12.13
2022-10-24T22:36:40.018Z,12.12
2022-10-24T22:39:14.325Z,12.07
2022-10-24T22:41:42.501Z,12.12
2022-10-24T22:44:11.256Z,12.17
2022-10-24T22:46:41.176Z,12.17
2022-10-24T22:49:24.684Z,12.20
2022-10-24T22:51:51.850Z,12.16
2022-10-24T22:54:22.953Z,12.24
2022-10-24T22:56:50.461Z,12.33
2022-10-24T22:59:17.934Z,12.36
2022-10-24T23:02:04.935Z,12.32
2022-10-24T23:04:46.881Z,12.30
2022-10-24T23:07:30.433Z,12.33
2022-10-24T23:09:57.309Z,12.33
2022-10-24T23:12:24.579Z,12.34
2022-10-24T23:14:52.341Z,12.36
2022-10-24T23:17:28.177Z,12.43
2022-10-24T23:19:56.693Z,12.46
2022-10-24T23:22:26.641Z,12.46
2022-10-24T23:24:56.388Z,12.44
2022-10-24T23:27:34.045Z,12.47
2022-10-24T23:30:26.767Z,12.51
2022-10-24T23:32:54.209Z,12.52
2022-10-24T23:35:22.219Z,12.55
2022-10-24T23:37:51.307Z,12.56
2022-10-24T23:40:30.031Z,12.54
2022-10-24T23:42:57.651Z,12.48
2022-10-24T23:45:28.123Z,12.44
2022-10-24T23:48:15.946Z,12.41
2022-10-24T23:50:52.121Z,12.39
2022-10-24T23:53:46.783Z,12.33
2022-10-24T23:56:14.104Z,12.27
2022-10-24T23:58:41.036Z,12.23
